sensor_id;sensor_type;location;lat;lon;timestamp;temperature;humidity
3134;DHT22;1577;49.912;10.924;2023-02-05T00:01:28;-2.10;99.90
3134;DHT22;1577;49.912;10.924;2023-02-05T00:03:54;-2.20;99.90
3134;DHT22;1577;49.912;10.924;2023-02-05T00:06:20;-2.40;99.90
3134;DHT22;1577;49.912;10.924;2023-02-05T00:08:45;-2.50;99.90
3134;DHT22;1577;49.912;10.924;2023-02-05T00:11:11;-2.50;99.90
3134;DHT22;1577;49.912;10.924;2023-02-05T00:13:38;-2.50;99.90
3134;DHT22;1577;49.912;10.924;2023-02-05T00:16:13;-2.50;99.90
3134;DHT22;1577;49.912;10.924;2023-02-05T00:18:39;-2.50;99.90
3134;DHT22;1577;49.912;10.924;2023-02-05T00:21:05;-2.50;99.90
3134;DHT22;1577;49.912;10.924;2023-02-05T00:23:32;-2.40;99.90
3134;DHT22;1577;49.912;10.924;2023-02-05T00:25:58;-2.30;99.90
3134;DHT22;1577;49.912;10.924;2023-02-05T00:28:24;-2.40;99.90
3134;DHT22;1577;49.912;10.924;2023-02-05T00:30:49;-2.40;99.90
3134;DHT22;1577;49.912;10.924;2023-02-05T00:33:15;-2.30;99.90
3134;DHT22;1577;49.912;10.924;2023-02-05T00:35:44;-2.50;99.90
3134;DHT22;1577;49.912;10.924;2023-02-05T00:38:10;-2.60;99.90
3134;DHT22;1577;49.912;10.924;2023-02-05T00:40:36;-2.60;99.90
3134;DHT22;1577;49.912;10.924;2023-02-05T00:43:02;-2.60;99.90
3134;DHT22;1577;49.912;10.924;2023-02-05T00:45:27;-2.70;99.90
3134;DHT22;1577;49.912;10.924;2023-02-05T00:48:02;-2.50;99.90
3134;DHT22;1577;49.912;10.924;2023-02-05T00:50:28;-2.50;99.90
3134;DHT22;1577;49.912;10.924;2023-02-05T00:52:54;-2.60;99.90
3134;DHT22;1577;49.912;10.924;2023-02-05T00:55:20;-2.50;99.90
3134;DHT22;1577;49.912;10.924;2023-02-05T00:57:45;-2.50;99.90
3134;DHT22;1577;49.912;10.924;2023-02-05T01:00:11;-2.50;99.90
3134;DHT22;1577;49.912;10.924;2023-02-05T01:02:37;-2.50;99.90
3134;DHT22;1577;49.912;10.924;2023-02-05T01:05:02;-2.60;99.90
3134;DHT22;1577;49.912;10.924;2023-02-05T01:07:28;-2.60;99.90
3134;DHT22;1577;49.912;10.924;2023-02-05T01:09:54;-2.60;99.90
3134;DHT22;1577;49.912;10.924;2023-02-05T01:12:19;-2.70;99.90
3134;DHT22;1577;49.912;10.924;2023-02-05T01:14:45;-2.80;99.90
3134;DHT22;1577;49.912;10.924;2023-02-05T01:17:10;-2.80;99.90
3134;DHT22;1577;49.912;10.924;2023-02-05T01:19:36;-2.80;99.90
3134;DHT22;1577;49.912;10.924;2023-02-05T01:22:03;-2.90;99.90
3134;DHT22;1577;49.912;10.924;2023-02-05T01:24:28;-2.90;99.90
3134;DHT22;1577;49.912;10.924;2023-02-05T01:26:54;-2.90;99.90
3134;DHT22;1577;49.912;10.924;2023-02-05T01:29:22;-2.90;99.90
3134;DHT22;1577;49.912;10.924;2023-02-05T01:31:47;-2.80;99.90
3134;DHT22;1577;49.912;10.924;2023-02-05T01:34:13;-2.80;99.90
3134;DHT22;1577;49.912;10.924;2023-02-05T01:36:39;-2.90;99.90
3134;DHT22;1577;49.912;10.924;2023-02-05T01:39:04;-2.90;99.90
3134;DHT22;1577;49.912;10.924;2023-02-05T01:41:30;-3.00;99.90
3134;DHT22;1577;49.912;10.924;2023-02-05T01:46:41;-3.00;99.90
3134;DHT22;1577;49.912;10.924;2023-02-05T01:49:11;-2.90;99.90
3134;DHT22;1577;49.912;10.924;2023-02-05T01:51:38;-3.00;99.90
3134;DHT22;1577;49.912;10.924;2023-02-05T01:54:05;-3.00;99.90
3134;DHT22;1577;49.912;10.924;2023-02-05T01:56:40;-3.00;99.90
3134;DHT22;1577;49.912;10.924;2023-02-05T01:59:19;-3.00;99.90
3134;DHT22;1577;49.912;10.924;2023-02-05T02:01:46;-3.00;99.90
3134;DHT22;1577;49.912;10.924;2023-02-05T02:04:43;-3.10;99.90
3134;DHT22;1577;49.912;10.924;2023-02-05T02:07:12;-3.20;99.90
3134;DHT22;1577;49.912;10.924;2023-02-05T02:09:40;-3.30;99.90
3134;DHT22;1577;49.912;10.924;2023-02-05T02:12:08;-3.30;99.90
3134;DHT22;1577;49.912;10.924;2023-02-05T02:14:36;-3.40;99.90
3134;DHT22;1577;49.912;10.924;2023-02-05T02:17:04;-3.40;99.90
3134;DHT22;1577;49.912;10.924;2023-02-05T02:19:40;-3.50;99.90
3134;DHT22;1577;49.912;10.924;2023-02-05T02:22:47;-3.50;99.90
3134;DHT22;1577;49.912;10.924;2023-02-05T02:28:53;-3.40;99.90
3134;DHT22;1577;49.912;10.924;2023-02-05T02:33:59;-3.40;99.90
3134;DHT22;1577;49.912;10.924;2023-02-05T02:39:49;-3.40;99.90
3134;DHT22;1577;49.912;10.924;2023-02-05T02:42:48;-3.40;99.90
3134;DHT22;1577;49.912;10.924;2023-02-05T02:45:17;-3.40;99.90
3134;DHT22;1577;49.912;10.924;2023-02-05T02:47:52;-3.50;99.90
3134;DHT22;1577;49.912;10.924;2023-02-05T02:50:26;-3.40;99.90
3134;DHT22;1577;49.912;10.924;2023-02-05T02:53:00;-3.30;99.90
3134;DHT22;1577;49.912;10.924;2023-02-05T02:55:30;-3.30;99.90
3134;DHT22;1577;49.912;10.924;2023-02-05T02:57:59;-3.30;99.90
3134;DHT22;1577;49.912;10.924;2023-02-05T03:00:26;-3.40;99.90
3134;DHT22;1577;49.912;10.924;2023-02-05T03:02:58;-3.40;99.90
3134;DHT22;1577;49.912;10.924;2023-02-05T03:05:26;-3.40;99.90
3134;DHT22;1577;49.912;10.924;2023-02-05T03:07:57;-3.40;99.90
3134;DHT22;1577;49.912;10.924;2023-02-05T03:11:00;-3.40;99.90
3134;DHT22;1577;49.912;10.924;2023-02-05T03:13:17;-3.50;99.90
3134;DHT22;1577;49.912;10.924;2023-02-05T03:15:44;-3.60;99.90
3134;DHT22;1577;49.912;10.924;2023-02-05T03:18:12;-3.60;99.90
3134;DHT22;1577;49.912;10.924;2023-02-05T03:20:44;-3.60;99.90
3134;DHT22;1577;49.912;10.924;2023-02-05T03:23:10;-3.70;99.90
3134;DHT22;1577;49.912;10.924;2023-02-05T03:25:35;-3.60;99.90
3134;DHT22;1577;49.912;10.924;2023-02-05T03:28:01;-3.50;99.90
3134;DHT22;1577;49.912;10.924;2023-02-05T03:30:41;-3.50;99.90
3134;DHT22;1577;49.912;10.924;2023-02-05T03:38:51;-3.40;99.90
3134;DHT22;1577;49.912;10.924;2023-02-05T03:47:36;-3.60;99.90
3134;DHT22;1577;49.912;10.924;2023-02-05T03:52:33;-3.50;99.90
3134;DHT22;1577;49.912;10.924;2023-02-05T03:55:10;-3.60;99.90
3134;DHT22;1577;49.912;10.924;2023-02-05T03:57:47;-3.60;99.90
3134;DHT22;1577;49.912;10.924;2023-02-05T04:00:15;-3.50;99.90
3134;DHT22;1577;49.912;10.924;2023-02-05T04:02:41;-3.50;99.90
3134;DHT22;1577;49.912;10.924;2023-02-05T04:05:07;-3.50;99.90
3134;DHT22;1577;49.912;10.924;2023-02-05T04:07:33;-3.60;99.90
3134;DHT22;1577;49.912;10.924;2023-02-05T04:09:59;-3.60;99.90
3134;DHT22;1577;49.912;10.924;2023-02-05T04:12:24;-3.60;99.90
3134;DHT22;1577;49.912;10.924;2023-02-05T04:14:50;-3.60;99.90
3134;DHT22;1577;49.912;10.924;2023-02-05T04:17:15;-3.60;99.90
3134;DHT22;1577;49.912;10.924;2023-02-05T04:19:41;-3.50;99.90
3134;DHT22;1577;49.912;10.924;2023-02-05T04:22:07;-3.50;99.90
3134;DHT22;1577;49.912;10.924;2023-02-05T04:24:32;-3.50;99.90
3134;DHT22;1577;49.912;10.924;2023-02-05T04:26:58;-3.60;99.90
3134;DHT22;1577;49.912;10.924;2023-02-05T04:29:23;-3.50;99.90
3134;DHT22;1577;49.912;10.924;2023-02-05T04:31:49;-3.50;99.90
3134;DHT22;1577;49.912;10.924;2023-02-05T04:34:14;-3.60;99.90
3134;DHT22;1577;49.912;10.924;2023-02-05T04:36:40;-3.60;99.90
3134;DHT22;1577;49.912;10.924;2023-02-05T04:39:06;-3.50;99.90
3134;DHT22;1577;49.912;10.924;2023-02-05T04:41:32;-3.60;99.90
3134;DHT22;1577;49.912;10.924;2023-02-05T04:43:57;-3.60;99.90
3134;DHT22;1577;49.912;10.924;2023-02-05T04:46:23;-3.70;99.90
3134;DHT22;1577;49.912;10.924;2023-02-05T04:48:49;-3.80;99.90
3134;DHT22;1577;49.912;10.924;2023-02-05T04:51:14;-3.80;99.90
3134;DHT22;1577;49.912;10.924;2023-02-05T04:53:41;-3.90;99.90
3134;DHT22;1577;49.912;10.924;2023-02-05T04:56:11;-3.90;99.90
3134;DHT22;1577;49.912;10.924;2023-02-05T04:58:37;-3.70;99.90
3134;DHT22;1577;49.912;10.924;2023-02-05T05:01:03;-3.70;99.90
3134;DHT22;1577;49.912;10.924;2023-02-05T05:03:29;-3.80;99.90
3134;DHT22;1577;49.912;10.924;2023-02-05T05:05:55;-3.90;99.90
3134;DHT22;1577;49.912;10.924;2023-02-05T05:08:21;-3.90;99.90
3134;DHT22;1577;49.912;10.924;2023-02-05T05:10:47;-3.90;99.90
3134;DHT22;1577;49.912;10.924;2023-02-05T05:13:12;-3.90;99.90
3134;DHT22;1577;49.912;10.924;2023-02-05T05:15:38;-3.90;99.90
3134;DHT22;1577;49.912;10.924;2023-02-05T05:18:04;-3.90;99.90
3134;DHT22;1577;49.912;10.924;2023-02-05T05:20:33;-3.90;99.90
3134;DHT22;1577;49.912;10.924;2023-02-05T05:22:59;-3.80;99.90
3134;DHT22;1577;49.912;10.924;2023-02-05T05:25:25;-3.80;99.90
3134;DHT22;1577;49.912;10.924;2023-02-05T05:27:50;-3.80;99.90
3134;DHT22;1577;49.912;10.924;2023-02-05T05:30:16;-3.90;99.90
3134;DHT22;1577;49.912;10.924;2023-02-05T05:32:42;-3.90;99.90
3134;DHT22;1577;49.912;10.924;2023-02-05T05:35:07;-3.90;99.90
3134;DHT22;1577;49.912;10.924;2023-02-05T05:37:33;-3.80;99.90
3134;DHT22;1577;49.912;10.924;2023-02-05T05:39:58;-4.00;99.90
3134;DHT22;1577;49.912;10.924;2023-02-05T05:42:42;-4.00;99.90
3134;DHT22;1577;49.912;10.924;2023-02-05T05:45:27;-3.80;99.90
3134;DHT22;1577;49.912;10.924;2023-02-05T05:47:52;-3.80;99.90
3134;DHT22;1577;49.912;10.924;2023-02-05T05:50:19;-3.80;99.90
3134;DHT22;1577;49.912;10.924;2023-02-05T05:52:44;-3.90;99.90
3134;DHT22;1577;49.912;10.924;2023-02-05T05:55:10;-3.90;99.90
3134;DHT22;1577;49.912;10.924;2023-02-05T05:57:35;-3.90;99.90
3134;DHT22;1577;49.912;10.924;2023-02-05T06:00:01;-3.90;99.90
3134;DHT22;1577;49.912;10.924;2023-02-05T06:02:27;-3.80;99.90
3134;DHT22;1577;49.912;10.924;2023-02-05T06:04:52;-3.80;99.90
3134;DHT22;1577;49.912;10.924;2023-02-05T06:07:18;-3.70;99.90
3134;DHT22;1577;49.912;10.924;2023-02-05T06:09:44;-3.80;99.90
3134;DHT22;1577;49.912;10.924;2023-02-05T06:12:09;-3.90;99.90
3134;DHT22;1577;49.912;10.924;2023-02-05T06:14:35;-4.00;99.90
3134;DHT22;1577;49.912;10.924;2023-02-05T06:17:01;-3.90;99.90
3134;DHT22;1577;49.912;10.924;2023-02-05T06:19:26;-3.80;99.90
3134;DHT22;1577;49.912;10.924;2023-02-05T06:21:52;-3.90;99.90
3134;DHT22;1577;49.912;10.924;2023-02-05T06:24:17;-4.00;99.90
3134;DHT22;1577;49.912;10.924;2023-02-05T06:26:43;-4.00;99.90
3134;DHT22;1577;49.912;10.924;2023-02-05T06:29:08;-3.90;99.90
3134;DHT22;1577;49.912;10.924;2023-02-05T06:31:34;-3.80;99.90
3134;DHT22;1577;49.912;10.924;2023-02-05T06:34:00;-3.70;99.90
3134;DHT22;1577;49.912;10.924;2023-02-05T06:36:25;-3.60;99.90
3134;DHT22;1577;49.912;10.924;2023-02-05T06:38:52;-3.60;99.90
3134;DHT22;1577;49.912;10.924;2023-02-05T06:41:17;-3.60;99.90
3134;DHT22;1577;49.912;10.924;2023-02-05T06:43:43;-3.60;99.90
3134;DHT22;1577;49.912;10.924;2023-02-05T06:46:09;-3.60;99.90
3134;DHT22;1577;49.912;10.924;2023-02-05T06:48:34;-3.50;99.90
3134;DHT22;1577;49.912;10.924;2023-02-05T06:51:00;-3.50;99.90
3134;DHT22;1577;49.912;10.924;2023-02-05T06:53:25;-3.50;99.90
3134;DHT22;1577;49.912;10.924;2023-02-05T06:55:51;-3.40;99.90
3134;DHT22;1577;49.912;10.924;2023-02-05T06:58:17;-3.20;99.90
3134;DHT22;1577;49.912;10.924;2023-02-05T07:00:42;-3.10;99.90
3134;DHT22;1577;49.912;10.924;2023-02-05T07:03:08;-2.90;99.90
3134;DHT22;1577;49.912;10.924;2023-02-05T07:05:33;-2.80;99.90
3134;DHT22;1577;49.912;10.924;2023-02-05T07:07:59;-2.70;99.90
3134;DHT22;1577;49.912;10.924;2023-02-05T07:10:25;-2.60;99.90
3134;DHT22;1577;49.912;10.924;2023-02-05T07:12:51;-2.50;99.90
3134;DHT22;1577;49.912;10.924;2023-02-05T07:15:17;-2.50;99.90
3134;DHT22;1577;49.912;10.924;2023-02-05T07:17:42;-2.40;99.90
3134;DHT22;1577;49.912;10.924;2023-02-05T07:20:08;-2.30;99.90
3134;DHT22;1577;49.912;10.924;2023-02-05T07:22:34;-2.30;99.90
3134;DHT22;1577;49.912;10.924;2023-02-05T07:25:00;-2.20;99.90
3134;DHT22;1577;49.912;10.924;2023-02-05T07:27:25;-2.20;99.90
3134;DHT22;1577;49.912;10.924;2023-02-05T07:29:51;-2.10;99.90
3134;DHT22;1577;49.912;10.924;2023-02-05T07:32:17;-2.00;99.90
3134;DHT22;1577;49.912;10.924;2023-02-05T07:34:42;-1.90;99.90
3134;DHT22;1577;49.912;10.924;2023-02-05T07:37:10;-1.80;99.90
3134;DHT22;1577;49.912;10.924;2023-02-05T07:39:36;-1.70;99.90
3134;DHT22;1577;49.912;10.924;2023-02-05T07:42:02;-1.60;99.90
3134;DHT22;1577;49.912;10.924;2023-02-05T07:44:28;-1.60;99.90
3134;DHT22;1577;49.912;10.924;2023-02-05T07:46:53;-1.40;99.90
3134;DHT22;1577;49.912;10.924;2023-02-05T07:49:19;-1.30;99.90
3134;DHT22;1577;49.912;10.924;2023-02-05T07:51:45;-1.20;99.90
3134;DHT22;1577;49.912;10.924;2023-02-05T07:54:11;-1.00;99.90
3134;DHT22;1577;49.912;10.924;2023-02-05T07:56:39;-0.90;99.90
3134;DHT22;1577;49.912;10.924;2023-02-05T07:59:05;-0.80;99.90
3134;DHT22;1577;49.912;10.924;2023-02-05T08:01:31;-0.70;99.90
3134;DHT22;1577;49.912;10.924;2023-02-05T08:03:57;-0.60;99.90
3134;DHT22;1577;49.912;10.924;2023-02-05T08:06:23;-0.50;99.90
3134;DHT22;1577;49.912;10.924;2023-02-05T08:08:52;-0.50;99.90
3134;DHT22;1577;49.912;10.924;2023-02-05T08:11:18;-0.40;99.90
3134;DHT22;1577;49.912;10.924;2023-02-05T08:13:44;-0.30;99.90
3134;DHT22;1577;49.912;10.924;2023-02-05T08:16:11;-0.30;99.90
3134;DHT22;1577;49.912;10.924;2023-02-05T08:18:37;-0.20;99.90
3134;DHT22;1577;49.912;10.924;2023-02-05T08:21:03;-0.10;99.90
3134;DHT22;1577;49.912;10.924;2023-02-05T08:23:29;-0.10;99.90
3134;DHT22;1577;49.912;10.924;2023-02-05T08:25:56;-0.10;99.90
3134;DHT22;1577;49.912;10.924;2023-02-05T08:28:23;0.00;99.90
3134;DHT22;1577;49.912;10.924;2023-02-05T08:30:49;0.10;99.90
3134;DHT22;1577;49.912;10.924;2023-02-05T08:33:15;0.30;99.90
3134;DHT22;1577;49.912;10.924;2023-02-05T08:35:41;0.30;99.90
3134;DHT22;1577;49.912;10.924;2023-02-05T08:38:06;0.40;99.90
3134;DHT22;1577;49.912;10.924;2023-02-05T08:40:32;0.50;99.90
3134;DHT22;1577;49.912;10.924;2023-02-05T08:42:58;0.50;99.90
3134;DHT22;1577;49.912;10.924;2023-02-05T08:45:25;0.40;99.90
3134;DHT22;1577;49.912;10.924;2023-02-05T08:47:51;0.50;99.90
3134;DHT22;1577;49.912;10.924;2023-02-05T08:50:18;0.50;99.90
3134;DHT22;1577;49.912;10.924;2023-02-05T08:52:44;0.60;99.90
3134;DHT22;1577;49.912;10.924;2023-02-05T08:58:37;0.40;99.90
3134;DHT22;1577;49.912;10.924;2023-02-05T09:01:05;0.30;99.90
3134;DHT22;1577;49.912;10.924;2023-02-05T09:03:31;0.30;99.90
3134;DHT22;1577;49.912;10.924;2023-02-05T09:05:57;0.20;99.90
3134;DHT22;1577;49.912;10.924;2023-02-05T09:08:25;0.20;99.90
3134;DHT22;1577;49.912;10.924;2023-02-05T09:10:50;0.20;99.90
3134;DHT22;1577;49.912;10.924;2023-02-05T09:13:16;0.20;99.90
3134;DHT22;1577;49.912;10.924;2023-02-05T09:15:44;0.20;99.90
3134;DHT22;1577;49.912;10.924;2023-02-05T09:18:09;0.20;99.90
3134;DHT22;1577;49.912;10.924;2023-02-05T09:20:43;0.20;99.90
3134;DHT22;1577;49.912;10.924;2023-02-05T09:23:11;0.20;99.90
3134;DHT22;1577;49.912;10.924;2023-02-05T09:25:38;0.40;99.90
3134;DHT22;1577;49.912;10.924;2023-02-05T09:28:09;0.50;99.90
3134;DHT22;1577;49.912;10.924;2023-02-05T09:30:36;0.50;99.90
3134;DHT22;1577;49.912;10.924;2023-02-05T09:33:02;0.60;99.90
3134;DHT22;1577;49.912;10.924;2023-02-05T09:35:28;0.50;99.90
3134;DHT22;1577;49.912;10.924;2023-02-05T09:37:55;0.50;99.90
3134;DHT22;1577;49.912;10.924;2023-02-05T09:40:27;0.60;99.90
3134;DHT22;1577;49.912;10.924;2023-02-05T09:43:21;0.60;99.90
3134;DHT22;1577;49.912;10.924;2023-02-05T09:49:34;0.70;99.90
3134;DHT22;1577;49.912;10.924;2023-02-05T09:51:37;0.70;99.90
3134;DHT22;1577;49.912;10.924;2023-02-05T09:54:18;0.70;99.90
3134;DHT22;1577;49.912;10.924;2023-02-05T09:56:46;0.80;99.90
3134;DHT22;1577;49.912;10.924;2023-02-05T09:59:18;0.90;99.90
3134;DHT22;1577;49.912;10.924;2023-02-05T10:04:15;1.10;99.90
3134;DHT22;1577;49.912;10.924;2023-02-05T10:09:38;1.20;99.90
3134;DHT22;1577;49.912;10.924;2023-02-05T10:26:16;1.80;99.90
3134;DHT22;1577;49.912;10.924;2023-02-05T10:37:13;1.80;99.90
3134;DHT22;1577;49.912;10.924;2023-02-05T10:39:40;1.70;99.90
3134;DHT22;1577;49.912;10.924;2023-02-05T10:42:30;1.70;99.90
3134;DHT22;1577;49.912;10.924;2023-02-05T10:45:33;1.70;99.90
3134;DHT22;1577;49.912;10.924;2023-02-05T10:48:04;1.90;99.90
3134;DHT22;1577;49.912;10.924;2023-02-05T10:53:17;2.20;99.90
3134;DHT22;1577;49.912;10.924;2023-02-05T10:55:42;2.20;99.90
3134;DHT22;1577;49.912;10.924;2023-02-05T10:58:35;2.20;99.90
3134;DHT22;1577;49.912;10.924;2023-02-05T11:01:17;2.30;99.90
3134;DHT22;1577;49.912;10.924;2023-02-05T11:04:02;2.40;99.90
3134;DHT22;1577;49.912;10.924;2023-02-05T11:06:41;2.50;99.90
3134;DHT22;1577;49.912;10.924;2023-02-05T11:12:02;2.70;99.90
3134;DHT22;1577;49.912;10.924;2023-02-05T11:14:35;2.80;99.90
3134;DHT22;1577;49.912;10.924;2023-02-05T11:20:05;2.80;99.90
3134;DHT22;1577;49.912;10.924;2023-02-05T11:22:35;2.80;99.90
3134;DHT22;1577;49.912;10.924;2023-02-05T11:25:22;2.80;99.90
3134;DHT22;1577;49.912;10.924;2023-02-05T11:27:58;2.90;99.90
3134;DHT22;1577;49.912;10.924;2023-02-05T11:30:35;2.90;99.90
3134;DHT22;1577;49.912;10.924;2023-02-05T11:35:50;2.70;99.90
3134;DHT22;1577;49.912;10.924;2023-02-05T11:40:56;2.70;99.90
3134;DHT22;1577;49.912;10.924;2023-02-05T11:43:26;2.70;99.90
3134;DHT22;1577;49.912;10.924;2023-02-05T11:45:54;2.70;99.90
3134;DHT22;1577;49.912;10.924;2023-02-05T11:50:52;2.80;99.90
3134;DHT22;1577;49.912;10.924;2023-02-05T11:53:19;2.70;99.90
3134;DHT22;1577;49.912;10.924;2023-02-05T11:55:45;2.70;99.90
3134;DHT22;1577;49.912;10.924;2023-02-05T11:58:20;2.60;99.90
3134;DHT22;1577;49.912;10.924;2023-02-05T12:01:00;2.70;99.90
3134;DHT22;1577;49.912;10.924;2023-02-05T12:03:28;2.70;99.90
3134;DHT22;1577;49.912;10.924;2023-02-05T12:08:46;2.80;99.90
3134;DHT22;1577;49.912;10.924;2023-02-05T12:11:34;3.00;99.90
3134;DHT22;1577;49.912;10.924;2023-02-05T12:14:38;3.30;99.90
3134;DHT22;1577;49.912;10.924;2023-02-05T12:20:05;3.50;99.90
3134;DHT22;1577;49.912;10.924;2023-02-05T12:28:35;3.90;99.90
3134;DHT22;1577;49.912;10.924;2023-02-05T12:59:02;3.20;99.90
3134;DHT22;1577;49.912;10.924;2023-02-05T13:01:52;3.10;99.90
3134;DHT22;1577;49.912;10.924;2023-02-05T13:07:31;3.30;99.90
3134;DHT22;1577;49.912;10.924;2023-02-05T13:10:16;3.20;99.90
3134;DHT22;1577;49.912;10.924;2023-02-05T13:12:53;3.20;99.90
3134;DHT22;1577;49.912;10.924;2023-02-05T13:15:26;3.30;99.90
3134;DHT22;1577;49.912;10.924;2023-02-05T13:18:00;3.30;99.90
3134;DHT22;1577;49.912;10.924;2023-02-05T13:20:31;3.40;99.90
3134;DHT22;1577;49.912;10.924;2023-02-05T13:23:16;3.40;99.90
3134;DHT22;1577;49.912;10.924;2023-02-05T13:26:02;3.50;99.90
3134;DHT22;1577;49.912;10.924;2023-02-05T13:31:36;3.40;99.90
3134;DHT22;1577;49.912;10.924;2023-02-05T13:34:07;3.40;99.90
3134;DHT22;1577;49.912;10.924;2023-02-05T13:39:40;3.40;99.90
3134;DHT22;1577;49.912;10.924;2023-02-05T13:51:15;3.30;99.90
3134;DHT22;1577;49.912;10.924;2023-02-05T13:54:17;3.20;99.90
3134;DHT22;1577;49.912;10.924;2023-02-05T13:56:47;3.20;99.90
3134;DHT22;1577;49.912;10.924;2023-02-05T13:59:16;3.10;99.90
3134;DHT22;1577;49.912;10.924;2023-02-05T14:01:53;3.10;99.90
3134;DHT22;1577;49.912;10.924;2023-02-05T14:04:41;3.10;99.90
3134;DHT22;1577;49.912;10.924;2023-02-05T14:07:25;3.10;99.90
3134;DHT22;1577;49.912;10.924;2023-02-05T14:09:54;3.00;99.90
3134;DHT22;1577;49.912;10.924;2023-02-05T14:12:30;2.90;99.90
3134;DHT22;1577;49.912;10.924;2023-02-05T14:22:54;2.90;99.90
3134;DHT22;1577;49.912;10.924;2023-02-05T14:28:01;2.90;99.90
3134;DHT22;1577;49.912;10.924;2023-02-05T14:33:01;2.90;99.90
3134;DHT22;1577;49.912;10.924;2023-02-05T14:35:30;3.00;99.90
3134;DHT22;1577;49.912;10.924;2023-02-05T14:38:01;3.00;99.90
3134;DHT22;1577;49.912;10.924;2023-02-05T14:40:29;2.90;99.90
3134;DHT22;1577;49.912;10.924;2023-02-05T14:42:58;2.90;99.90
3134;DHT22;1577;49.912;10.924;2023-02-05T14:45:28;2.70;99.90
3134;DHT22;1577;49.912;10.924;2023-02-05T14:47:54;2.70;99.90
3134;DHT22;1577;49.912;10.924;2023-02-05T14:50:25;2.70;99.90
3134;DHT22;1577;49.912;10.924;2023-02-05T14:53:02;2.80;99.90
3134;DHT22;1577;49.912;10.924;2023-02-05T14:55:39;2.70;99.90
3134;DHT22;1577;49.912;10.924;2023-02-05T14:58:21;2.70;99.90
3134;DHT22;1577;49.912;10.924;2023-02-05T15:00:48;2.50;99.90
3134;DHT22;1577;49.912;10.924;2023-02-05T15:03:19;2.60;99.90
3134;DHT22;1577;49.912;10.924;2023-02-05T15:05:51;2.50;99.90
3134;DHT22;1577;49.912;10.924;2023-02-05T15:08:21;2.60;99.90
3134;DHT22;1577;49.912;10.924;2023-02-05T15:13:22;2.70;99.90
3134;DHT22;1577;49.912;10.924;2023-02-05T15:21:27;2.70;99.90
3134;DHT22;1577;49.912;10.924;2023-02-05T15:24:13;2.60;99.90
3134;DHT22;1577;49.912;10.924;2023-02-05T15:26:45;2.70;99.90
3134;DHT22;1577;49.912;10.924;2023-02-05T15:29:22;2.60;99.90
3134;DHT22;1577;49.912;10.924;2023-02-05T15:31:59;2.60;99.90
3134;DHT22;1577;49.912;10.924;2023-02-05T15:34:40;2.60;99.90
3134;DHT22;1577;49.912;10.924;2023-02-05T15:37:19;2.50;99.90
3134;DHT22;1577;49.912;10.924;2023-02-05T15:40:02;2.40;99.90
3134;DHT22;1577;49.912;10.924;2023-02-05T15:42:39;2.50;99.90
3134;DHT22;1577;49.912;10.924;2023-02-05T15:45:25;2.50;99.90
3134;DHT22;1577;49.912;10.924;2023-02-05T15:50:22;2.40;99.90
3134;DHT22;1577;49.912;10.924;2023-02-05T15:52:48;2.30;99.90
3134;DHT22;1577;49.912;10.924;2023-02-05T15:55:18;2.30;99.90
3134;DHT22;1577;49.912;10.924;2023-02-05T15:57:46;2.20;99.90
3134;DHT22;1577;49.912;10.924;2023-02-05T16:00:18;2.20;99.90
3134;DHT22;1577;49.912;10.924;2023-02-05T16:03:01;2.20;99.90
3134;DHT22;1577;49.912;10.924;2023-02-05T16:05:29;2.20;99.90
3134;DHT22;1577;49.912;10.924;2023-02-05T16:07:55;2.30;99.90
3134;DHT22;1577;49.912;10.924;2023-02-05T16:13:01;2.30;99.90
3134;DHT22;1577;49.912;10.924;2023-02-05T16:15:50;2.20;99.90
3134;DHT22;1577;49.912;10.924;2023-02-05T16:18:19;2.30;99.90
3134;DHT22;1577;49.912;10.924;2023-02-05T16:20:53;2.30;99.90
3134;DHT22;1577;49.912;10.924;2023-02-05T16:23:24;2.30;99.90
3134;DHT22;1577;49.912;10.924;2023-02-05T16:25:58;2.30;99.90
3134;DHT22;1577;49.912;10.924;2023-02-05T16:30:55;2.40;99.90
3134;DHT22;1577;49.912;10.924;2023-02-05T16:33:39;2.30;99.90
3134;DHT22;1577;49.912;10.924;2023-02-05T16:36:06;2.20;99.90
3134;DHT22;1577;49.912;10.924;2023-02-05T16:38:38;2.20;99.90
3134;DHT22;1577;49.912;10.924;2023-02-05T16:41:25;2.10;99.90
3134;DHT22;1577;49.912;10.924;2023-02-05T16:43:53;2.00;99.90
3134;DHT22;1577;49.912;10.924;2023-02-05T16:46:25;2.00;99.90
3134;DHT22;1577;49.912;10.924;2023-02-05T16:49:02;2.00;99.90
3134;DHT22;1577;49.912;10.924;2023-02-05T16:51:33;2.10;99.90
3134;DHT22;1577;49.912;10.924;2023-02-05T16:56:38;2.10;99.90
3134;DHT22;1577;49.912;10.924;2023-02-05T16:59:47;2.10;99.90
3134;DHT22;1577;49.912;10.924;2023-02-05T17:02:05;2.20;99.90
3134;DHT22;1577;49.912;10.924;2023-02-05T17:04:38;2.30;99.90
3134;DHT22;1577;49.912;10.924;2023-02-05T17:07:16;2.30;99.90
3134;DHT22;1577;49.912;10.924;2023-02-05T17:09:42;2.30;99.90
3134;DHT22;1577;49.912;10.924;2023-02-05T17:15:30;2.30;99.90
3134;DHT22;1577;49.912;10.924;2023-02-05T17:17:52;2.20;99.90
3134;DHT22;1577;49.912;10.924;2023-02-05T17:20:22;2.10;99.90
3134;DHT22;1577;49.912;10.924;2023-02-05T17:25:34;2.20;99.90
3134;DHT22;1577;49.912;10.924;2023-02-05T17:28:04;2.30;99.90
3134;DHT22;1577;49.912;10.924;2023-02-05T17:30:30;2.30;99.90
3134;DHT22;1577;49.912;10.924;2023-02-05T17:32:56;2.30;99.90
3134;DHT22;1577;49.912;10.924;2023-02-05T17:35:22;2.30;99.90
3134;DHT22;1577;49.912;10.924;2023-02-05T17:37:51;2.30;99.90
3134;DHT22;1577;49.912;10.924;2023-02-05T17:40:18;2.20;99.90
3134;DHT22;1577;49.912;10.924;2023-02-05T17:42:45;2.20;99.90
3134;DHT22;1577;49.912;10.924;2023-02-05T17:45:18;2.30;99.90
3134;DHT22;1577;49.912;10.924;2023-02-05T17:47:43;2.30;99.90
3134;DHT22;1577;49.912;10.924;2023-02-05T17:50:10;2.40;99.90
3134;DHT22;1577;49.912;10.924;2023-02-05T17:52:37;2.30;99.90
3134;DHT22;1577;49.912;10.924;2023-02-05T17:55:04;2.20;99.90
3134;DHT22;1577;49.912;10.924;2023-02-05T17:57:30;2.10;99.90
3134;DHT22;1577;49.912;10.924;2023-02-05T17:59:58;2.10;99.90
3134;DHT22;1577;49.912;10.924;2023-02-05T18:02:24;2.20;99.90
3134;DHT22;1577;49.912;10.924;2023-02-05T18:04:51;2.20;99.90
3134;DHT22;1577;49.912;10.924;2023-02-05T18:07:31;2.30;99.90
3134;DHT22;1577;49.912;10.924;2023-02-05T18:09:58;2.30;99.90
3134;DHT22;1577;49.912;10.924;2023-02-05T18:12:24;2.30;99.90
3134;DHT22;1577;49.912;10.924;2023-02-05T18:14:50;2.30;99.90
3134;DHT22;1577;49.912;10.924;2023-02-05T18:17:16;2.30;99.90
3134;DHT22;1577;49.912;10.924;2023-02-05T18:19:41;2.20;99.90
3134;DHT22;1577;49.912;10.924;2023-02-05T18:22:07;2.20;99.90
3134;DHT22;1577;49.912;10.924;2023-02-05T18:24:33;2.10;99.90
3134;DHT22;1577;49.912;10.924;2023-02-05T18:27:02;2.10;99.90
3134;DHT22;1577;49.912;10.924;2023-02-05T18:29:29;2.10;99.90
3134;DHT22;1577;49.912;10.924;2023-02-05T18:31:54;2.00;99.90
3134;DHT22;1577;49.912;10.924;2023-02-05T18:34:20;2.10;99.90
3134;DHT22;1577;49.912;10.924;2023-02-05T18:36:45;2.10;99.90
3134;DHT22;1577;49.912;10.924;2023-02-05T18:39:11;2.10;99.90
3134;DHT22;1577;49.912;10.924;2023-02-05T18:41:37;2.10;99.90
3134;DHT22;1577;49.912;10.924;2023-02-05T18:44:03;2.10;99.90
3134;DHT22;1577;49.912;10.924;2023-02-05T18:46:29;2.00;99.90
3134;DHT22;1577;49.912;10.924;2023-02-05T18:48:54;2.00;99.90
3134;DHT22;1577;49.912;10.924;2023-02-05T18:51:21;1.90;99.90
3134;DHT22;1577;49.912;10.924;2023-02-05T18:53:48;1.90;99.90
3134;DHT22;1577;49.912;10.924;2023-02-05T18:58:42;2.20;99.90
3134;DHT22;1577;49.912;10.924;2023-02-05T19:03:34;2.10;99.90
3134;DHT22;1577;49.912;10.924;2023-02-05T19:06:05;2.20;99.90
3134;DHT22;1577;49.912;10.924;2023-02-05T19:08:31;2.20;99.90